Time;durP1;ratioP1;P1;durP2;ratioP2;P2;SDS_P1;SDS_P2;PMS_P1;PMS_P2;Temp;Humidity;BMP_temperature;BMP_pressure;BME280_temperature;BME280_humidity;BME280_pressure;Samples;Min_cycle;Max_cycle;Signal;HPM_P1;HPM_P2
2021/08/24 00:01:23;;;;;;;2.08;1.42;;;;;;;;;;5031695;28;20456;-51
2021/08/24 00:03:49;;;;;;;2.05;1.25;;;;;;;;;;5032116;28;20057;-50
2021/08/24 00:06:15;;;;;;;3.70;2.08;;;;;;;;;;5032549;28;20029;-51
2021/08/24 00:08:41;;;;;;;2.88;1.67;;;;;;;;;;5032529;28;20109;-50
2021/08/24 00:11:08;;;;;;;2.63;1.80;;;;;;;;;;5033764;28;20026;-51
2021/08/24 00:13:34;;;;;;;2.35;1.60;;;;;;;;;;5035858;28;20116;-51
2021/08/24 00:16:00;;;;;;;3.00;1.80;;;;;;;;;;5035964;28;20041;-51
2021/08/24 00:21:30;;;;;;;3.35;1.70;;;;;;;;;;5036043;28;20359;-51
2021/08/24 00:23:56;;;;;;;10.18;2.47;;;;;;;;;;5035913;28;20026;-51
2021/08/24 00:26:22;;;;;;;5.72;1.77;;;;;;;;;;5035867;28;20465;-51
2021/08/24 00:28:48;;;;;;;7.80;1.95;;;;;;;;;;5035478;28;20037;-51
2021/08/24 00:31:14;;;;;;;3.40;1.90;;;;;;;;;;5035483;28;20096;-50
2021/08/24 00:33:40;;;;;;;3.05;1.63;;;;;;;;;;5035585;28;20363;-51
2021/08/24 00:36:06;;;;;;;11.52;1.73;;;;;;;;;;5036069;28;20029;-51
2021/08/24 00:38:32;;;;;;;2.80;1.80;;;;;;;;;;5035833;28;20083;-51
2021/08/24 00:40:59;;;;;;;7.10;1.80;;;;;;;;;;5034962;28;20037;-51
2021/08/24 00:43:26;;;;;;;3.28;1.83;;;;;;;;;;5035726;28;20049;-51
2021/08/24 00:45:58;;;;;;;8.93;1.90;;;;;;;;;;5035818;28;20034;-51
2021/08/24 00:48:30;;;;;;;5.13;2.15;;;;;;;;;;5035376;28;20108;-51
2021/08/24 00:50:57;;;;;;;3.03;1.88;;;;;;;;;;5034827;28;20466;-51
2021/08/24 00:53:25;;;;;;;4.60;1.83;;;;;;;;;;5035590;28;20041;-51
2021/08/24 00:55:52;;;;;;;4.38;1.88;;;;;;;;;;5034894;28;20326;-50
2021/08/24 00:58:19;;;;;;;4.50;1.80;;;;;;;;;;5035740;28;20077;-51
2021/08/24 01:00:45;;;;;;;3.22;1.60;;;;;;;;;;5034310;28;20129;-50
2021/08/24 01:03:14;;;;;;;3.25;1.70;;;;;;;;;;5035265;28;20021;-51
2021/08/24 01:05:41;;;;;;;3.55;2.00;;;;;;;;;;5035161;28;20399;-50
2021/08/24 01:08:19;;;;;;;4.57;1.83;;;;;;;;;;5035143;28;20558;-50
2021/08/24 01:10:49;;;;;;;4.00;1.58;;;;;;;;;;5034386;28;20072;-50
2021/08/24 01:13:34;;;;;;;4.10;2.35;;;;;;;;;;5034931;28;20030;-51
2021/08/24 01:16:12;;;;;;;5.03;2.10;;;;;;;;;;5035048;28;20137;-51
2021/08/24 01:18:45;;;;;;;3.30;1.70;;;;;;;;;;5034542;28;20035;-50
2021/08/24 01:21:14;;;;;;;2.40;1.95;;;;;;;;;;5034443;28;20022;-50
2021/08/24 01:23:46;;;;;;;2.92;2.13;;;;;;;;;;5034932;28;20112;-51
2021/08/24 01:26:12;;;;;;;3.88;1.90;;;;;;;;;;5033510;28;20128;-50
2021/08/24 01:28:41;;;;;;;7.07;1.75;;;;;;;;;;5034656;28;20514;-50
2021/08/24 01:31:11;;;;;;;4.70;2.05;;;;;;;;;;5034301;28;20029;-51
2021/08/24 01:33:56;;;;;;;5.00;1.83;;;;;;;;;;5034778;28;20504;-50
2021/08/24 01:36:27;;;;;;;5.63;2.20;;;;;;;;;;5034757;28;20041;-51
2021/08/24 01:38:58;;;;;;;3.50;1.90;;;;;;;;;;5034754;28;20410;-50
2021/08/24 01:41:27;;;;;;;3.38;1.88;;;;;;;;;;5033844;28;20029;-50
2021/08/24 01:44:02;;;;;;;4.82;2.00;;;;;;;;;;5034467;28;20057;-50
2021/08/24 01:46:28;;;;;;;2.58;1.67;;;;;;;;;;5034653;28;20029;-51
2021/08/24 01:48:59;;;;;;;2.60;1.70;;;;;;;;;;5034566;28;20097;-51
2021/08/24 01:51:27;;;;;;;2.92;2.00;;;;;;;;;;5033859;28;20025;-50
2021/08/24 01:54:05;;;;;;;2.83;1.52;;;;;;;;;;5034540;28;20039;-51
2021/08/24 01:56:35;;;;;;;4.50;1.85;;;;;;;;;;5034108;28;20029;-51
2021/08/24 01:59:01;;;;;;;;;;;;;;;;;;5034386;28;20109;-50
2021/08/24 02:01:39;;;;;;;3.83;1.70;;;;;;;;;;5033692;28;20008;-50
2021/08/24 02:04:08;;;;;;;2.55;1.73;;;;;;;;;;5034441;28;20028;-51
2021/08/24 02:06:41;;;;;;;4.80;1.73;;;;;;;;;;5034232;28;20506;-51
2021/08/24 02:09:10;;;;;;;6.78;2.28;;;;;;;;;;5033705;28;20527;-51
2021/08/24 02:11:36;;;;;;;7.72;2.20;;;;;;;;;;5033747;28;20465;-51
2021/08/24 02:14:06;;;;;;;5.15;1.90;;;;;;;;;;5033678;28;20025;-50
2021/08/24 02:16:33;;;;;;;8.15;1.85;;;;;;;;;;5033828;28;20038;-51
2021/08/24 02:19:01;;;;;;;4.47;1.85;;;;;;;;;;5034075;28;20055;-51
2021/08/24 02:21:29;;;;;;;2.67;1.60;;;;;;;;;;5030171;28;20305;-51
2021/08/24 02:23:59;;;;;;;3.33;1.83;;;;;;;;;;5031085;28;20124;-51
2021/08/24 02:26:26;;;;;;;3.67;2.10;;;;;;;;;;5033213;28;20467;-50
2021/08/24 02:28:54;;;;;;;3.17;2.03;;;;;;;;;;5033790;28;20038;-50
2021/08/24 02:31:23;;;;;;;6.40;2.00;;;;;;;;;;5032797;28;20510;-50
2021/08/24 02:33:55;;;;;;;3.88;2.33;;;;;;;;;;5032975;28;20030;-51
2021/08/24 02:36:22;;;;;;;5.13;2.00;;;;;;;;;;5032390;28;20030;-50
2021/08/24 02:38:55;;;;;;;3.25;1.90;;;;;;;;;;5033475;28;20124;-50
2021/08/24 02:41:23;;;;;;;3.33;1.90;;;;;;;;;;5032684;28;20459;-50
2021/08/24 02:43:59;;;;;;;6.70;2.22;;;;;;;;;;5032909;28;20411;-50
2021/08/24 02:46:30;;;;;;;3.95;1.90;;;;;;;;;;5032765;28;20034;-51
2021/08/24 02:49:07;;;;;;;1.85;1.52;;;;;;;;;;5032978;28;20358;-50
2021/08/24 02:51:33;;;;;;;5.95;1.83;;;;;;;;;;5033088;28;20060;-50
2021/08/24 02:54:13;;;;;;;4.00;1.85;;;;;;;;;;5033538;28;20045;-50
2021/08/24 02:56:39;;;;;;;4.38;1.73;;;;;;;;;;5033443;28;20037;-51
2021/08/24 02:59:05;;;;;;;3.67;1.80;;;;;;;;;;5032854;28;20032;-51
2021/08/24 03:01:31;;;;;;;3.33;1.98;;;;;;;;;;5033149;28;20021;-51
2021/08/24 03:03:57;;;;;;;3.53;1.95;;;;;;;;;;5032469;28;20025;-50
2021/08/24 03:06:23;;;;;;;4.25;1.98;;;;;;;;;;5033452;28;20074;-51
2021/08/24 03:08:49;;;;;;;9.23;2.40;;;;;;;;;;5032785;28;20026;-51
2021/08/24 03:11:18;;;;;;;3.47;2.00;;;;;;;;;;5032703;28;20033;-50
2021/08/24 03:13:48;;;;;;;6.47;2.05;;;;;;;;;;5032915;28;20025;-50
2021/08/24 03:16:20;;;;;;;3.22;2.00;;;;;;;;;;5032471;28;20029;-51
2021/08/24 03:18:48;;;;;;;5.70;1.60;;;;;;;;;;5032972;28;20083;-51
2021/08/24 03:21:16;;;;;;;4.22;2.05;;;;;;;;;;5032330;28;20029;-50
2021/08/24 03:23:44;;;;;;;4.30;1.88;;;;;;;;;;5033033;28;20022;-50
2021/08/24 03:26:10;;;;;;;7.68;1.98;;;;;;;;;;5032576;28;20114;-50
2021/08/24 03:28:40;;;;;;;3.95;2.15;;;;;;;;;;5032946;28;20022;-50
2021/08/24 03:31:06;;;;;;;3.97;2.13;;;;;;;;;;5031986;28;20271;-51
2021/08/24 03:33:31;;;;;;;5.22;2.33;;;;;;;;;;5032442;28;20511;-50
2021/08/24 03:35:57;;;;;;;2.72;1.58;;;;;;;;;;5032822;28;20125;-50
2021/08/24 03:38:23;;;;;;;3.78;1.95;;;;;;;;;;5032732;28;20049;-51
2021/08/24 03:40:49;;;;;;;4.97;2.20;;;;;;;;;;5031826;28;20083;-50
2021/08/24 03:43:15;;;;;;;6.03;2.50;;;;;;;;;;5032576;28;20108;-50
2021/08/24 03:45:42;;;;;;;4.25;2.08;;;;;;;;;;5034271;28;20436;-50
2021/08/24 03:48:08;;;;;;;3.33;2.03;;;;;;;;;;5036842;28;20041;-51
2021/08/24 03:50:34;;;;;;;3.97;2.42;;;;;;;;;;5036260;28;20017;-50
2021/08/24 03:53:00;;;;;;;5.05;1.90;;;;;;;;;;5036401;28;20029;-50
2021/08/24 03:55:26;;;;;;;8.45;2.38;;;;;;;;;;5036981;28;20044;-50
2021/08/24 03:57:52;;;;;;;3.70;1.92;;;;;;;;;;5036344;28;20455;-51
2021/08/24 04:00:18;;;;;;;3.13;1.85;;;;;;;;;;5036275;28;20037;-50
2021/08/24 04:02:44;;;;;;;4.72;2.00;;;;;;;;;;5036361;28;20021;-51
2021/08/24 04:05:11;;;;;;;8.15;2.15;;;;;;;;;;5036614;28;20026;-51
2021/08/24 04:07:37;;;;;;;3.83;2.30;;;;;;;;;;5036364;28;20028;-50
2021/08/24 04:10:04;;;;;;;4.10;2.28;;;;;;;;;;5036016;28;20021;-50
2021/08/24 04:12:30;;;;;;;6.07;2.28;;;;;;;;;;5035895;28;20459;-50
2021/08/24 04:14:56;;;;;;;3.38;1.85;;;;;;;;;;5036161;28;20291;-50
2021/08/24 04:17:22;;;;;;;4.85;2.20;;;;;;;;;;5035795;28;20107;-50
2021/08/24 04:19:48;;;;;;;10.60;2.00;;;;;;;;;;5035397;28;20109;-50
2021/08/24 04:22:18;;;;;;;3.63;2.13;;;;;;;;;;5035916;28;20032;-50
2021/08/24 04:24:44;;;;;;;5.20;2.05;;;;;;;;;;5035599;28;20087;-50
2021/08/24 04:27:10;;;;;;;5.68;2.28;;;;;;;;;;5035938;28;20029;-51
2021/08/24 04:29:36;;;;;;;7.68;2.08;;;;;;;;;;5035057;28;20064;-51
2021/08/24 04:32:04;;;;;;;4.25;2.20;;;;;;;;;;5035701;28;20469;-51
2021/08/24 04:34:30;;;;;;;9.85;2.80;;;;;;;;;;5034024;28;20064;-50
2021/08/24 04:36:56;;;;;;;4.93;2.15;;;;;;;;;;5033273;28;20029;-51
2021/08/24 04:39:22;;;;;;;2.60;1.92;;;;;;;;;;5034888;28;20378;-51
2021/08/24 04:41:48;;;;;;;8.85;2.42;;;;;;;;;;5035391;28;20026;-50
2021/08/24 04:44:14;;;;;;;8.73;2.80;;;;;;;;;;5035933;28;20025;-50
2021/08/24 04:46:40;;;;;;;5.72;2.53;;;;;;;;;;5035748;28;20100;-50
2021/08/24 04:49:06;;;;;;;5.53;2.83;;;;;;;;;;5035534;28;20101;-50
2021/08/24 04:51:32;;;;;;;6.40;2.45;;;;;;;;;;5035190;28;20502;-50
2021/08/24 04:53:58;;;;;;;6.28;2.17;;;;;;;;;;5035182;28;20447;-51
2021/08/24 04:56:24;;;;;;;6.20;2.72;;;;;;;;;;5034489;28;20052;-51
2021/08/24 04:58:50;;;;;;;5.32;2.75;;;;;;;;;;5035341;28;20516;-51
2021/08/24 05:01:16;;;;;;;4.50;2.58;;;;;;;;;;5035199;28;20029;-51
2021/08/24 05:03:42;;;;;;;5.20;2.40;;;;;;;;;;5035349;28;20439;-51
2021/08/24 05:06:08;;;;;;;4.85;2.80;;;;;;;;;;5035198;28;20168;-51
2021/08/24 05:08:34;;;;;;;6.82;2.70;;;;;;;;;;5035216;28;20130;-50
2021/08/24 05:11:00;;;;;;;5.00;2.60;;;;;;;;;;5034197;28;20467;-51
2021/08/24 05:13:26;;;;;;;6.60;2.85;;;;;;;;;;5032105;28;20065;-51
2021/08/24 05:15:52;;;;;;;5.53;3.08;;;;;;;;;;5027584;28;20095;-51
2021/08/24 05:18:18;;;;;;;3.25;2.10;;;;;;;;;;5034674;28;20367;-51
2021/08/24 05:20:44;;;;;;;7.50;2.90;;;;;;;;;;5033816;28;20435;-51
2021/08/24 05:23:10;;;;;;;6.82;2.90;;;;;;;;;;5041119;28;20017;-52
2021/08/24 05:25:38;;;;;;;4.93;2.55;;;;;;;;;;5037202;28;20029;-51
2021/08/24 05:28:04;;;;;;;17.58;2.95;;;;;;;;;;5052357;28;20033;-51
2021/08/24 05:30:30;;;;;;;5.57;2.72;;;;;;;;;;5053372;28;20029;-51
2021/08/24 05:32:56;;;;;;;7.72;3.13;;;;;;;;;;5046845;28;20022;-50
2021/08/24 05:35:23;;;;;;;9.35;3.13;;;;;;;;;;5034342;28;20456;-51
2021/08/24 05:37:51;;;;;;;9.00;3.15;;;;;;;;;;5033337;28;20029;-51
2021/08/24 05:40:17;;;;;;;5.45;2.90;;;;;;;;;;5034451;28;20025;-52
2021/08/24 05:42:44;;;;;;;4.68;2.58;;;;;;;;;;5034248;28;20037;-51
2021/08/24 05:45:10;;;;;;;4.47;2.90;;;;;;;;;;5033919;28;20018;-52
2021/08/24 05:47:36;;;;;;;6.53;3.08;;;;;;;;;;5034517;28;20026;-52
2021/08/24 05:50:03;;;;;;;7.53;3.25;;;;;;;;;;5034131;28;20072;-52
2021/08/24 05:52:29;;;;;;;7.10;3.10;;;;;;;;;;5033230;28;20036;-51
2021/08/24 05:54:55;;;;;;;4.18;2.58;;;;;;;;;;5034448;28;20281;-51
2021/08/24 05:57:21;;;;;;;8.05;3.35;;;;;;;;;;5027574;28;20609;-51
2021/08/24 05:59:48;;;;;;;6.57;2.70;;;;;;;;;;5022705;28;20155;-51
2021/08/24 06:02:14;;;;;;;8.63;2.83;;;;;;;;;;5031731;28;20461;-51
2021/08/24 06:04:40;;;;;;;8.10;3.03;;;;;;;;;;5026409;28;20025;-51
2021/08/24 06:07:06;;;;;;;10.02;2.83;;;;;;;;;;5032782;28;20033;-51
2021/08/24 06:09:32;;;;;;;10.40;2.90;;;;;;;;;;5032829;28;20510;-51
2021/08/24 06:11:58;;;;;;;4.13;2.70;;;;;;;;;;5033495;28;20053;-51
2021/08/24 06:14:26;;;;;;;6.60;2.90;;;;;;;;;;5033471;28;20450;-51
2021/08/24 06:16:56;;;;;;;5.47;2.90;;;;;;;;;;5032952;28;20109;-51
2021/08/24 06:19:22;;;;;;;4.60;2.67;;;;;;;;;;5033170;28;20044;-51
2021/08/24 06:21:48;;;;;;;11.50;3.10;;;;;;;;;;5032409;28;20398;-51
2021/08/24 06:24:14;;;;;;;7.55;3.15;;;;;;;;;;5033799;28;20104;-51
2021/08/24 06:26:42;;;;;;;6.07;2.92;;;;;;;;;;5033656;28;20358;-51
2021/08/24 06:29:08;;;;;;;17.63;3.35;;;;;;;;;;5032282;28;20521;-51
2021/08/24 06:31:38;;;;;;;13.85;3.55;;;;;;;;;;5032034;28;20124;-51
2021/08/24 06:34:06;;;;;;;6.78;3.17;;;;;;;;;;5033315;28;20083;-51
2021/08/24 06:36:32;;;;;;;7.53;3.22;;;;;;;;;;5033120;28;20344;-51
2021/08/24 06:38:58;;;;;;;5.97;2.88;;;;;;;;;;5032747;28;20032;-51
2021/08/24 06:41:24;;;;;;;5.47;3.30;;;;;;;;;;5032665;28;20033;-51
2021/08/24 06:43:50;;;;;;;5.30;2.70;;;;;;;;;;5033065;28;20130;-51
2021/08/24 06:46:16;;;;;;;5.35;2.92;;;;;;;;;;5032863;28;20391;-51
2021/08/24 06:48:43;;;;;;;7.60;3.22;;;;;;;;;;5033361;28;20021;-51
2021/08/24 06:51:09;;;;;;;10.38;4.00;;;;;;;;;;5032036;28;20447;-51
2021/08/24 06:53:35;;;;;;;9.15;3.13;;;;;;;;;;5033317;28;20100;-51
2021/08/24 06:56:04;;;;;;;6.32;3.55;;;;;;;;;;5032979;28;20033;-51
2021/08/24 06:58:30;;;;;;;9.30;3.47;;;;;;;;;;5032322;28;20032;-51
2021/08/24 07:00:56;;;;;;;7.78;3.13;;;;;;;;;;5032117;28;20029;-51
2021/08/24 07:03:22;;;;;;;7.55;3.85;;;;;;;;;;5033200;28;20071;-51
2021/08/24 07:05:49;;;;;;;6.47;2.90;;;;;;;;;;5032575;28;20467;-51
2021/08/24 07:08:16;;;;;;;10.38;2.92;;;;;;;;;;5032939;28;20382;-51
2021/08/24 07:10:42;;;;;;;5.95;2.97;;;;;;;;;;5032447;28;20028;-51
2021/08/24 07:13:08;;;;;;;6.20;2.90;;;;;;;;;;5032525;28;20037;-51
2021/08/24 07:15:36;;;;;;;5.93;3.33;;;;;;;;;;5031975;28;20052;-51
2021/08/24 07:18:02;;;;;;;6.93;2.40;;;;;;;;;;5032569;28;20039;-51
2021/08/24 07:20:28;;;;;;;10.70;2.65;;;;;;;;;;5031333;28;20362;-51
2021/08/24 07:22:57;;;;;;;7.97;3.17;;;;;;;;;;5032187;28;20120;-51
2021/08/24 07:25:25;;;;;;;5.63;2.70;;;;;;;;;;5032857;28;20080;-51
2021/08/24 07:27:51;;;;;;;8.32;3.47;;;;;;;;;;5032057;28;20416;-51
2021/08/24 07:30:18;;;;;;;6.78;3.13;;;;;;;;;;5031885;28;20355;-51
2021/08/24 07:32:44;;;;;;;5.40;3.03;;;;;;;;;;5031698;28;20413;-51
2021/08/24 07:35:10;;;;;;;4.90;2.88;;;;;;;;;;5029683;28;20522;-51
2021/08/24 07:37:36;;;;;;;7.78;2.85;;;;;;;;;;5021600;28;20025;-51
2021/08/24 07:40:03;;;;;;;6.40;3.10;;;;;;;;;;5032273;28;20056;-51
2021/08/24 07:42:29;;;;;;;7.22;2.67;;;;;;;;;;5031707;28;20052;-51
2021/08/24 07:44:55;;;;;;;6.75;2.95;;;;;;;;;;5031866;28;20026;-51
2021/08/24 07:47:21;;;;;;;3.72;3.00;;;;;;;;;;5032365;28;20078;-51
2021/08/24 07:49:47;;;;;;;4.80;2.85;;;;;;;;;;5032355;28;20021;-51
2021/08/24 07:52:14;;;;;;;9.88;3.05;;;;;;;;;;5031999;28;20071;-51
2021/08/24 07:54:40;;;;;;;9.10;3.03;;;;;;;;;;5032113;28;20029;-51
2021/08/24 07:57:06;;;;;;;12.02;3.85;;;;;;;;;;5032114;28;20040;-51
2021/08/24 07:59:32;;;;;;;7.05;3.30;;;;;;;;;;5031071;28;20314;-51
2021/08/24 08:01:59;;;;;;;5.00;3.17;;;;;;;;;;5031669;28;20036;-50
2021/08/24 08:04:26;;;;;;;8.35;3.97;;;;;;;;;;5032671;28;20108;-51
2021/08/24 08:06:52;;;;;;;8.25;3.72;;;;;;;;;;5031668;28;20072;-51
2021/08/24 08:09:20;;;;;;;10.02;3.60;;;;;;;;;;5032225;28;20025;-51
2021/08/24 08:11:46;;;;;;;8.15;4.18;;;;;;;;;;5031372;28;20038;-51
2021/08/24 08:14:13;;;;;;;8.10;3.47;;;;;;;;;;5032030;28;20121;-51
2021/08/24 08:16:40;;;;;;;7.28;4.00;;;;;;;;;;5030769;28;20068;-51
2021/08/24 08:19:06;;;;;;;5.40;3.65;;;;;;;;;;5031656;28;20088;-51
2021/08/24 08:21:33;;;;;;;7.20;4.38;;;;;;;;;;5031451;28;20029;-51
2021/08/24 08:24:00;;;;;;;7.05;3.95;;;;;;;;;;5032054;28;20036;-52
2021/08/24 08:26:27;;;;;;;11.90;3.55;;;;;;;;;;5031494;28;20029;-51
2021/08/24 08:28:55;;;;;;;5.97;3.60;;;;;;;;;;5031171;28;20049;-51
2021/08/24 08:31:22;;;;;;;7.55;3.97;;;;;;;;;;5032769;28;20108;-51
2021/08/24 08:33:48;;;;;;;7.43;3.40;;;;;;;;;;5035772;28;20061;-51
2021/08/24 08:36:14;;;;;;;6.82;3.65;;;;;;;;;;5024221;28;20455;-51
2021/08/24 08:38:40;;;;;;;7.95;4.32;;;;;;;;;;5015847;28;20083;-51
2021/08/24 08:41:26;;;;;;;9.68;3.95;;;;;;;;;;5019560;28;20026;-51
2021/08/24 08:43:53;;;;;;;9.75;4.10;;;;;;;;;;5032520;28;20033;-51
2021/08/24 08:46:19;;;;;;;9.60;3.70;;;;;;;;;;5035281;28;20036;-51
2021/08/24 08:48:49;;;;;;;8.48;4.10;;;;;;;;;;5034103;28;20362;-51
2021/08/24 08:51:24;;;;;;;9.27;3.88;;;;;;;;;;5034416;28;20366;-51
2021/08/24 08:54:14;;;;;;;6.05;3.90;;;;;;;;;;5034817;28;20399;-51
2021/08/24 08:56:45;;;;;;;6.97;4.00;;;;;;;;;;5033499;28;20447;-51
2021/08/24 08:59:10;;;;;;;;;;;;;;;;;;5034365;28;20018;-51
2021/08/24 09:01:58;;;;;;;6.45;3.88;;;;;;;;;;5034931;28;20323;-51
2021/08/24 09:04:29;;;;;;;5.72;3.80;;;;;;;;;;5035697;28;20087;-51
2021/08/24 09:06:57;;;;;;;11.98;3.97;;;;;;;;;;5034429;28;20474;-51
2021/08/24 09:09:23;;;;;;;7.93;3.83;;;;;;;;;;5034907;28;20027;-51
2021/08/24 09:11:50;;;;;;;7.03;3.75;;;;;;;;;;5034750;28;20113;-51
2021/08/24 09:14:16;;;;;;;10.07;3.78;;;;;;;;;;5034007;28;20137;-51
2021/08/24 09:16:48;;;;;;;7.45;3.55;;;;;;;;;;5034517;28;20486;-51
2021/08/24 09:19:21;;;;;;;6.63;3.70;;;;;;;;;;5034498;28;20025;-51
2021/08/24 09:21:48;;;;;;;8.98;3.55;;;;;;;;;;5034516;28;20025;-51
2021/08/24 09:24:19;;;;;;;7.22;3.80;;;;;;;;;;5035017;28;20788;-51
2021/08/24 09:26:49;;;;;;;8.73;3.90;;;;;;;;;;5034518;28;20029;-51
2021/08/24 09:29:19;;;;;;;7.00;3.95;;;;;;;;;;5033363;28;20029;-51
2021/08/24 09:31:46;;;;;;;8.23;4.22;;;;;;;;;;5034205;28;20204;-51
2021/08/24 09:34:13;;;;;;;7.22;3.95;;;;;;;;;;5035193;28;20034;-51
2021/08/24 09:36:40;;;;;;;8.20;4.22;;;;;;;;;;5034763;28;20603;-51
2021/08/24 09:39:06;;;;;;;9.10;4.72;;;;;;;;;;5034363;28;20025;-51
2021/08/24 09:41:33;;;;;;;7.13;4.05;;;;;;;;;;5034145;28;20103;-51
2021/08/24 09:44:17;;;;;;;8.07;4.38;;;;;;;;;;5033516;28;20333;-51
2021/08/24 09:46:44;;;;;;;8.60;3.53;;;;;;;;;;5030502;28;20018;-51
2021/08/24 09:49:22;;;;;;;6.38;3.75;;;;;;;;;;5026811;28;20105;-51
2021/08/24 09:52:06;;;;;;;4.63;2.85;;;;;;;;;;5033814;28;20033;-51
2021/08/24 09:54:41;;;;;;;5.95;3.63;;;;;;;;;;5034747;28;20031;-51
2021/08/24 09:57:10;;;;;;;6.47;3.53;;;;;;;;;;5034149;28;20092;-51
2021/08/24 09:59:38;;;;;;;6.63;4.10;;;;;;;;;;5033027;28;20029;-51
2021/08/24 10:02:05;;;;;;;7.35;4.07;;;;;;;;;;5034246;28;20108;-51
2021/08/24 10:04:48;;;;;;;9.55;4.40;;;;;;;;;;5033684;28;20037;-51
2021/08/24 10:07:14;;;;;;;7.90;3.75;;;;;;;;;;5034308;28;20037;-51
2021/08/24 10:09:41;;;;;;;8.57;3.83;;;;;;;;;;5033716;28;20017;-51
2021/08/24 10:12:21;;;;;;;7.07;3.30;;;;;;;;;;5034240;28;20030;-51
2021/08/24 10:14:48;;;;;;;6.47;3.75;;;;;;;;;;5032332;28;20104;-51
2021/08/24 10:17:35;;;;;;;16.77;4.22;;;;;;;;;;5034136;28;20037;-52
2021/08/24 10:20:21;;;;;;;6.38;3.85;;;;;;;;;;5033225;28;20037;-51
2021/08/24 10:22:48;;;;;;;4.68;3.72;;;;;;;;;;5032408;28;20039;-51
2021/08/24 10:25:20;;;;;;;6.70;4.30;;;;;;;;;;5033383;28;20477;-51
2021/08/24 10:27:56;;;;;;;10.10;4.13;;;;;;;;;;5033725;28;20027;-51
2021/08/24 10:30:43;;;;;;;9.05;4.53;;;;;;;;;;5031891;28;20412;-51
2021/08/24 10:33:17;;;;;;;11.02;4.75;;;;;;;;;;5033939;28;20026;-51
2021/08/24 10:35:43;;;;;;;11.35;4.50;;;;;;;;;;5029131;28;20029;-51
2021/08/24 10:38:16;;;;;;;12.18;3.65;;;;;;;;;;5022650;28;20040;-51
2021/08/24 10:40:46;;;;;;;9.50;3.75;;;;;;;;;;5032986;28;20017;-51
2021/08/24 10:43:15;;;;;;;6.30;3.72;;;;;;;;;;5033517;28;20065;-51
2021/08/24 10:45:43;;;;;;;6.75;3.90;;;;;;;;;;5031942;28;20029;-51
2021/08/24 10:48:19;;;;;;;6.68;3.95;;;;;;;;;;5033157;28;20026;-51
2021/08/24 10:50:54;;;;;;;5.03;3.58;;;;;;;;;;5032572;28;20025;-51
2021/08/24 10:53:55;;;;;;;8.02;4.38;;;;;;;;;;5033267;28;20355;-51
2021/08/24 10:56:24;;;;;;;5.15;3.33;;;;;;;;;;5007982;28;20115;-51
2021/08/24 10:58:55;;;;;;;6.80;3.50;;;;;;;;;;5010290;28;21025;-51
2021/08/24 11:01:29;;;;;;;6.05;3.45;;;;;;;;;;5017423;28;20120;-51
2021/08/24 11:04:01;;;;;;;7.28;3.30;;;;;;;;;;5010921;28;20034;-51
2021/08/24 11:06:48;;;;;;;5.93;3.40;;;;;;;;;;5010895;28;20066;-51
2021/08/24 11:09:21;;;;;;;3.95;2.95;;;;;;;;;;5010545;28;20037;-51
2021/08/24 11:12:09;;;;;;;4.65;3.10;;;;;;;;;;5010746;28;20041;-51
2021/08/24 11:14:44;;;;;;;9.15;3.00;;;;;;;;;;5009538;28;20075;-51
2021/08/24 11:17:16;;;;;;;5.60;3.58;;;;;;;;;;5018792;28;20380;-51
2021/08/24 11:19:50;;;;;;;4.00;2.95;;;;;;;;;;5010331;28;20406;-51
2021/08/24 11:22:24;;;;;;;5.38;2.83;;;;;;;;;;5010226;28;20571;-51
2021/08/24 11:24:57;;;;;;;5.18;3.10;;;;;;;;;;5010554;28;20095;-51
2021/08/24 11:27:40;;;;;;;6.32;3.53;;;;;;;;;;5010943;28;20033;-51
2021/08/24 11:30:20;;;;;;;4.60;2.80;;;;;;;;;;5017200;28;20045;-51
2021/08/24 11:32:46;;;;;;;8.60;3.63;;;;;;;;;;5032708;28;20025;-51
2021/08/24 11:35:19;;;;;;;4.97;3.25;;;;;;;;;;5032682;28;20036;-51
2021/08/24 11:37:53;;;;;;;4.22;3.10;;;;;;;;;;5033309;28;20033;-51
2021/08/24 11:40:25;;;;;;;5.07;3.42;;;;;;;;;;5032061;28;20363;-51
2021/08/24 11:42:55;;;;;;;9.80;3.00;;;;;;;;;;5032566;28;20075;-51
2021/08/24 11:45:21;;;;;;;8.15;3.33;;;;;;;;;;5031481;28;20025;-51
2021/08/24 11:48:07;;;;;;;5.10;3.40;;;;;;;;;;5032912;28;20033;-51
2021/08/24 11:50:41;;;;;;;5.90;3.20;;;;;;;;;;5031555;28;20048;-51
2021/08/24 11:53:12;;;;;;;3.55;2.88;;;;;;;;;;5032853;28;20025;-51
2021/08/24 11:55:39;;;;;;;6.40;3.28;;;;;;;;;;5032783;28;20402;-51
2021/08/24 11:58:28;;;;;;;4.93;3.20;;;;;;;;;;5032627;28;20030;-51
2021/08/24 12:00:56;;;;;;;4.18;2.63;;;;;;;;;;5029444;28;20362;-51
2021/08/24 12:03:23;;;;;;;5.10;3.30;;;;;;;;;;5032593;28;20056;-51
2021/08/24 12:06:01;;;;;;;6.13;3.15;;;;;;;;;;5034379;28;20108;-51
2021/08/24 12:08:28;;;;;;;6.22;2.83;;;;;;;;;;5036666;28;20105;-51
2021/08/24 12:11:01;;;;;;;5.68;3.28;;;;;;;;;;5035786;28;20104;-51
2021/08/24 12:13:31;;;;;;;6.47;3.13;;;;;;;;;;5036269;28;20443;-51
2021/08/24 12:16:17;;;;;;;5.75;3.47;;;;;;;;;;5034359;28;20037;-51
2021/08/24 12:18:43;;;;;;;3.95;3.20;;;;;;;;;;5016388;28;20172;-51
2021/08/24 12:21:32;;;;;;;6.50;3.15;;;;;;;;;;5015940;28;20036;-51
2021/08/24 12:23:58;;;;;;;4.03;2.88;;;;;;;;;;5016359;28;20014;-51
2021/08/24 12:26:27;;;;;;;5.45;2.97;;;;;;;;;;5016527;28;20034;-51
2021/08/24 12:28:55;;;;;;;5.28;2.70;;;;;;;;;;5016245;28;20436;-51
2021/08/24 12:31:36;;;;;;;6.50;3.13;;;;;;;;;;5033012;28;20037;-51
2021/08/24 12:34:22;;;;;;;6.30;3.22;;;;;;;;;;5036042;28;20473;-51
2021/08/24 12:36:48;;;;;;;5.57;3.20;;;;;;;;;;5035431;28;20037;-51
2021/08/24 12:39:32;;;;;;;5.30;3.25;;;;;;;;;;5035636;28;20535;-51
2021/08/24 12:42:12;;;;;;;5.25;3.00;;;;;;;;;;5035465;28;20029;-51
2021/08/24 12:44:45;;;;;;;5.60;3.30;;;;;;;;;;5034594;28;20250;-51
2021/08/24 12:47:32;;;;;;;5.55;3.35;;;;;;;;;;5034687;28;20112;-51
2021/08/24 12:49:59;;;;;;;4.82;3.10;;;;;;;;;;5035178;28;20357;-52
2021/08/24 12:52:27;;;;;;;7.88;3.70;;;;;;;;;;5035451;28;20044;-52
2021/08/24 12:54:56;;;;;;;7.00;3.30;;;;;;;;;;5035676;28;20025;-52
2021/08/24 12:57:22;;;;;;;5.75;3.88;;;;;;;;;;5035198;28;20037;-51
2021/08/24 12:59:49;;;;;;;5.72;3.45;;;;;;;;;;5034639;28;20026;-51
2021/08/24 13:02:24;;;;;;;5.53;3.63;;;;;;;;;;5034153;28;20155;-51
2021/08/24 13:04:55;;;;;;;4.85;3.20;;;;;;;;;;5035726;28;20071;-51
2021/08/24 13:07:40;;;;;;;5.82;3.15;;;;;;;;;;5035494;28;20021;-51
2021/08/24 13:10:10;;;;;;;4.22;3.10;;;;;;;;;;5034643;28;20486;-51
2021/08/24 13:12:36;;;;;;;;;;;;;;;;;;5035663;28;20033;-51
2021/08/24 13:15:07;;;;;;;7.15;3.30;;;;;;;;;;5034857;28;19909;-51
2021/08/24 13:17:48;;;;;;;5.80;3.17;;;;;;;;;;5033293;28;20033;-51
2021/08/24 13:20:14;;;;;;;;;;;;;;;;;;5034947;28;20032;-51
2021/08/24 13:22:49;;;;;;;6.80;3.42;;;;;;;;;;5034719;28;19905;-51
2021/08/24 13:25:17;;;;;;;5.07;3.30;;;;;;;;;;5034769;28;20497;-51
2021/08/24 13:27:49;;;;;;;8.35;3.90;;;;;;;;;;5035028;28;20033;-51
2021/08/24 13:30:18;;;;;;;5.03;3.30;;;;;;;;;;5033910;28;20392;-51
2021/08/24 13:32:47;;;;;;;5.03;2.50;;;;;;;;;;5033151;28;20026;-51
2021/08/24 13:35:19;;;;;;;5.43;3.00;;;;;;;;;;5035091;28;20415;-51
2021/08/24 13:37:46;;;;;;;6.13;2.85;;;;;;;;;;5034807;28;20451;-51
2021/08/24 13:40:28;;;;;;;7.90;3.38;;;;;;;;;;5034459;28;20329;-51
2021/08/24 13:42:55;;;;;;;3.63;2.60;;;;;;;;;;5034499;28;20104;-51
2021/08/24 13:45:23;;;;;;;6.70;3.60;;;;;;;;;;5034260;28;20029;-51
2021/08/24 13:47:51;;;;;;;4.10;2.88;;;;;;;;;;5033811;28;20021;-51
2021/08/24 13:50:26;;;;;;;6.43;3.25;;;;;;;;;;5034436;28;20076;-51
2021/08/24 13:52:59;;;;;;;6.75;3.60;;;;;;;;;;5034577;28;20021;-52
2021/08/24 13:55:29;;;;;;;10.00;3.30;;;;;;;;;;5034819;28;20030;-51
2021/08/24 13:57:55;;;;;;;;;;;;;;;;;;5035165;28;20029;-51
2021/08/24 14:00:22;;;;;;;6.80;3.17;;;;;;;;;;5033529;28;19915;-51
2021/08/24 14:02:49;;;;;;;9.18;3.40;;;;;;;;;;5032875;28;20363;-52
2021/08/24 14:05:20;;;;;;;5.28;3.47;;;;;;;;;;5034621;28;20033;-51
2021/08/24 14:07:45;;;;;;;;;;;;;;;;;;5035022;28;20030;-51
2021/08/24 14:10:25;;;;;;;8.82;3.40;;;;;;;;;;5033261;28;19912;-51
2021/08/24 14:12:54;;;;;;;4.68;3.20;;;;;;;;;;5033659;28;20432;-51
2021/08/24 14:15:22;;;;;;;7.95;3.03;;;;;;;;;;5033900;28;20228;-51
2021/08/24 14:17:50;;;;;;;5.68;3.28;;;;;;;;;;5032559;28;20455;-52
2021/08/24 14:20:36;;;;;;;7.32;4.63;;;;;;;;;;5033506;28;20462;-51
2021/08/24 14:23:05;;;;;;;11.52;4.25;;;;;;;;;;5033699;28;20451;-51
2021/08/24 14:25:33;;;;;;;5.20;3.42;;;;;;;;;;5033894;28;20095;-51
2021/08/24 14:28:01;;;;;;;10.55;4.60;;;;;;;;;;5033988;28;20029;-51
2021/08/24 14:30:28;;;;;;;6.57;4.45;;;;;;;;;;5032393;28;20021;-51
2021/08/24 14:32:53;;;;;;;8.80;4.35;;;;;;;;;;5032393;28;20075;-51
2021/08/24 14:35:38;;;;;;;5.47;3.40;;;;;;;;;;5032935;28;20029;-51
2021/08/24 14:38:04;;;;;;;8.23;4.63;;;;;;;;;;5034007;28;20034;-51
2021/08/24 14:40:34;;;;;;;9.15;4.20;;;;;;;;;;5033171;28;20025;-51
2021/08/24 14:43:06;;;;;;;7.95;4.57;;;;;;;;;;5033181;28;20052;-51
2021/08/24 14:45:34;;;;;;;6.57;4.28;;;;;;;;;;5033086;28;20041;-52
2021/08/24 14:48:05;;;;;;;6.35;3.92;;;;;;;;;;5032623;28;20108;-51
2021/08/24 14:50:35;;;;;;;6.00;4.05;;;;;;;;;;5033106;28;20029;-51
2021/08/24 14:53:02;;;;;;;8.67;4.40;;;;;;;;;;5033182;28;20332;-51
2021/08/24 14:55:30;;;;;;;6.35;4.35;;;;;;;;;;5033766;28;20278;-51
2021/08/24 14:57:56;;;;;;;8.55;4.72;;;;;;;;;;5032993;28;20467;-51
2021/08/24 15:00:25;;;;;;;10.63;4.35;;;;;;;;;;5032278;28;20025;-51